createdAt,value
2023-10-10T04:15:30.981Z,447.90
2023-10-10T04:16:31.026Z,406.00
2023-10-10T04:17:31.026Z,348.30
2023-10-10T04:18:30.933Z,362.00
2023-10-10T04:19:30.916Z,304.20
2023-10-10T04:20:30.929Z,357.40
2023-10-10T04:21:30.903Z,359.30
2023-10-10T04:22:30.858Z,467.00
2023-10-10T04:23:30.915Z,402.00
2023-10-10T04:24:30.842Z,404.70
2023-10-10T04:25:30.837Z,395.70
2023-10-10T04:26:30.831Z,338.90
2023-10-10T04:27:30.798Z,437.60
2023-10-10T04:28:30.795Z,369.80
2023-10-10T04:29:30.793Z,387.40
2023-10-10T04:30:30.747Z,370.40
2023-10-10T04:31:30.759Z,338.20
2023-10-10T04:32:30.762Z,405.70
2023-10-10T04:33:30.748Z,407.30
2023-10-10T04:34:30.705Z,438.20
2023-10-10T04:35:30.722Z,289.90
2023-10-10T04:36:30.686Z,423.50
2023-10-10T04:37:30.676Z,375.60
2023-10-10T04:38:30.659Z,343.30
2023-10-10T04:39:30.645Z,347.20
2023-10-10T04:40:30.622Z,348.80
2023-10-10T04:41:30.641Z,370.10
2023-10-10T04:42:30.608Z,352.00
2023-10-10T04:43:30.586Z,377.00
2023-10-10T04:44:30.614Z,353.10
2023-10-10T04:45:30.565Z,420.10
2023-10-10T04:46:30.545Z,410.50
2023-10-10T04:47:30.575Z,400.20
2023-10-10T04:48:30.557Z,356.60
2023-10-10T04:49:30.514Z,392.00
2023-10-10T04:50:30.524Z,370.20
2023-10-10T04:51:30.494Z,372.50
2023-10-10T04:52:30.474Z,387.20
2023-10-10T04:53:30.468Z,328.90
2023-10-10T04:54:30.441Z,319.80
2023-10-10T04:55:30.432Z,357.80
2023-10-10T04:56:30.459Z,351.70
2023-10-10T04:57:30.402Z,350.30
2023-10-10T04:58:30.387Z,381.60
2023-10-10T04:59:30.428Z,359.30
2023-10-10T05:00:30.368Z,381.50
2023-10-10T05:01:30.396Z,381.60
2023-10-10T05:02:30.636Z,326.80
2023-10-10T05:03:30.376Z,368.00
2023-10-10T05:04:30.371Z,369.00
2023-10-10T05:05:30.372Z,359.00
2023-10-10T05:06:30.289Z,362.50
2023-10-10T05:07:30.282Z,364.90
2023-10-10T05:08:30.342Z,360.60
2023-10-10T05:09:30.263Z,353.40
2023-10-10T05:10:30.239Z,367.60
2023-10-10T05:11:30.260Z,381.20
2023-10-10T05:12:30.208Z,345.00
2023-10-10T05:13:30.227Z,302.90
2023-10-10T05:14:30.231Z,340.70
2023-10-10T05:15:30.179Z,321.90
2023-10-10T05:16:30.219Z,380.10
2023-10-10T05:17:30.289Z,401.40
2023-10-10T05:18:30.157Z,346.50
2023-10-10T05:19:30.124Z,371.30
2023-10-10T05:20:30.220Z,395.80
2023-10-10T05:21:30.088Z,386.50
2023-10-10T05:22:30.071Z,349.00
2023-10-10T05:23:30.083Z,370.80
2023-10-10T05:24:30.067Z,378.60
2023-10-10T05:25:30.032Z,391.20
2023-10-10T05:26:30.049Z,408.60
2023-10-10T05:27:30.000Z,390.40
2023-10-10T05:28:29.988Z,421.60
2023-10-10T05:29:30.030Z,421.70
2023-10-10T05:30:29.977Z,445.70
2023-10-10T05:31:30.020Z,443.60
2023-10-10T05:32:30.076Z,434.70
2023-10-10T05:33:30.042Z,449.00
2023-10-10T05:34:29.985Z,442.10
2023-10-10T05:35:30.010Z,448.80
2023-10-10T05:36:29.994Z,463.60
2023-10-10T05:37:29.913Z,437.00
2023-10-10T05:38:29.938Z,444.00
2023-10-10T05:39:29.850Z,443.20
2023-10-10T05:40:29.828Z,463.40
2023-10-10T05:41:29.851Z,446.40
2023-10-10T05:42:29.806Z,443.50
2023-10-10T05:43:29.815Z,446.90
2023-10-10T05:44:29.786Z,444.60
2023-10-10T05:45:29.797Z,425.40
2023-10-10T05:46:29.759Z,414.20
2023-10-10T05:47:29.852Z,398.90
2023-10-10T05:48:29.804Z,414.40
2023-10-10T05:49:31.909Z,411.90
2023-10-10T05:50:29.744Z,413.80
2023-10-10T05:51:29.685Z,414.30
2023-10-10T05:52:29.685Z,446.60
2023-10-10T05:53:29.693Z,424.20
2023-10-10T05:54:29.641Z,440.80
2023-10-10T05:55:29.634Z,417.50
2023-10-10T05:56:29.656Z,422.40
2023-10-10T05:57:29.671Z,424.90
2023-10-10T05:58:29.589Z,403.70
2023-10-10T05:59:29.615Z,404.30
2023-10-10T06:00:29.566Z,408.20
2023-10-10T06:01:29.588Z,391.20
2023-10-10T06:02:29.698Z,410.90
2023-10-10T06:03:29.584Z,395.30
2023-10-10T06:04:29.716Z,375.30
2023-10-10T06:05:29.546Z,372.60
2023-10-10T06:06:29.495Z,337.80
2023-10-10T06:07:29.473Z,381.20
2023-10-10T06:08:29.505Z,383.80
2023-10-10T06:09:29.445Z,376.50
2023-10-10T06:10:29.425Z,365.50
2023-10-10T06:11:29.444Z,351.20
2023-10-10T06:12:29.403Z,367.30
2023-10-10T06:13:29.392Z,356.40
2023-10-10T06:14:29.410Z,321.00
2023-10-10T06:15:29.439Z,316.90
2023-10-10T06:16:29.426Z,303.60
2023-10-10T06:17:29.484Z,320.30
2023-10-10T06:18:29.508Z,308.00
2023-10-10T06:19:29.349Z,304.80
2023-10-10T06:20:29.341Z,286.80
2023-10-10T06:21:29.294Z,305.70
2023-10-10T06:22:29.269Z,294.60
2023-10-10T06:23:29.306Z,293.20
2023-10-10T06:24:29.256Z,274.00
2023-10-10T06:25:29.254Z,248.10
2023-10-10T06:26:29.246Z,279.90
2023-10-10T06:27:29.208Z,283.30
2023-10-10T06:28:29.204Z,238.40
2023-10-10T06:29:29.238Z,263.70
2023-10-10T06:30:29.164Z,287.70
2023-10-10T06:31:29.170Z,294.90
2023-10-10T06:32:29.205Z,261.80
2023-10-10T06:33:29.382Z,282.10
2023-10-10T06:34:29.124Z,260.90
2023-10-10T06:35:29.336Z,255.70
2023-10-10T06:36:29.105Z,250.90
2023-10-10T06:37:29.080Z,260.30
2023-10-10T06:38:29.204Z,240.90
2023-10-10T06:39:29.068Z,227.90
2023-10-10T06:40:29.041Z,203.40
2023-10-10T06:41:29.443Z,180.90
2023-10-10T06:42:29.093Z,191.10
2023-10-10T06:43:29.017Z,183.70
2023-10-10T06:44:29.032Z,203.90
2023-10-10T06:45:29.014Z,179.50
2023-10-10T06:46:28.960Z,201.40
2023-10-10T06:47:29.041Z,166.80
2023-10-10T06:48:29.016Z,176.40
2023-10-10T06:49:28.933Z,172.50
2023-10-10T06:50:28.932Z,171.90
2023-10-10T06:51:28.897Z,178.10
2023-10-10T06:52:29.462Z,171.30
2023-10-10T06:53:28.926Z,171.20
2023-10-10T06:54:29.239Z,197.40
2023-10-10T06:55:28.850Z,181.90
2023-10-10T06:56:28.871Z,200.70
2023-10-10T06:57:28.835Z,198.60
2023-10-10T06:58:28.818Z,199.20
2023-10-10T06:59:28.906Z,210.00
2023-10-10T07:00:28.889Z,203.50
2023-10-10T07:01:28.807Z,193.00
2023-10-10T07:02:28.819Z,191.00
2023-10-10T07:03:28.841Z,185.40
2023-10-10T07:04:28.968Z,197.90
2023-10-10T07:05:28.792Z,172.50
2023-10-10T07:06:28.700Z,175.20
2023-10-10T07:07:28.719Z,178.90
2023-10-10T07:08:28.686Z,171.00
2023-10-10T07:09:28.681Z,174.90
2023-10-10T07:10:28.649Z,171.90
2023-10-10T07:11:28.660Z,149.80
2023-10-10T07:12:28.631Z,143.90
2023-10-10T07:13:28.607Z,150.80
2023-10-10T07:14:28.656Z,153.00
2023-10-10T07:15:28.612Z,148.10
2023-10-10T07:16:28.611Z,141.10
2023-10-10T07:17:28.839Z,145.30
2023-10-10T07:18:28.606Z,148.90
2023-10-10T07:19:28.522Z,157.30
2023-10-10T07:20:28.551Z,157.40
2023-10-10T07:21:28.500Z,157.70
2023-10-10T07:22:28.486Z,152.80
2023-10-10T07:23:28.533Z,159.40
2023-10-10T07:24:28.457Z,161.10
2023-10-10T07:25:28.537Z,151.20
2023-10-10T07:26:28.457Z,156.40
2023-10-10T07:27:28.702Z,152.90
2023-10-10T07:28:28.416Z,161.60
2023-10-10T07:29:28.425Z,153.60
2023-10-10T07:30:28.388Z,156.10
2023-10-10T07:31:28.402Z,157.70
2023-10-10T07:32:28.389Z,153.10
2023-10-10T07:33:28.354Z,156.40
2023-10-10T07:34:28.325Z,154.50
2023-10-10T07:35:28.347Z,150.60
2023-10-10T07:36:28.299Z,153.90
2023-10-10T07:37:28.282Z,154.10
2023-10-10T07:38:28.326Z,141.20
2023-10-10T07:39:28.257Z,151.80
2023-10-10T07:40:28.265Z,136.20
2023-10-10T07:41:28.299Z,139.00
2023-10-10T07:42:28.227Z,139.70
2023-10-10T07:43:28.275Z,136.40
2023-10-10T07:44:28.247Z,132.30
2023-10-10T07:45:28.183Z,126.30
2023-10-10T07:46:28.177Z,126.70
2023-10-10T07:47:28.629Z,126.80
2023-10-10T07:48:28.215Z,128.20
2023-10-10T07:49:28.131Z,121.10
2023-10-10T07:50:28.262Z,125.10
2023-10-10T07:51:28.089Z,124.40
2023-10-10T07:52:28.100Z,111.30
2023-10-10T07:53:28.096Z,119.10
2023-10-10T07:54:28.069Z,106.30
2023-10-10T07:55:28.052Z,106.00
2023-10-10T07:56:28.048Z,111.00
2023-10-10T07:57:28.016Z,113.50
2023-10-10T07:58:40.954Z,101.10
2023-10-10T07:59:29.017Z,101.40
2023-10-10T08:00:28.058Z,99.40
2023-10-10T08:01:28.017Z,106.70
2023-10-10T08:02:28.006Z,100.60
2023-10-10T08:03:27.993Z,90.60
2023-10-10T08:04:27.954Z,87.90
2023-10-10T08:05:27.919Z,93.60
2023-10-10T08:06:27.921Z,91.70
2023-10-10T08:07:27.877Z,93.20
2023-10-10T08:08:27.917Z,85.00
2023-10-10T08:09:27.856Z,79.90
2023-10-10T08:10:27.841Z,74.40
2023-10-10T08:11:27.858Z,69.90
2023-10-10T08:12:27.823Z,72.80
2023-10-10T08:13:27.826Z,71.60
2023-10-10T08:14:27.804Z,77.10
2023-10-10T08:15:27.776Z,69.80
2023-10-10T08:16:27.809Z,70.10
2023-10-10T08:17:27.961Z,70.90
2023-10-10T08:18:27.771Z,71.10
2023-10-10T08:19:27.730Z,78.90
2023-10-10T08:20:27.759Z,66.30
2023-10-10T08:21:27.700Z,67.00
2023-10-10T08:22:27.693Z,66.70
2023-10-10T08:23:27.711Z,63.20
2023-10-10T08:24:27.655Z,65.60
2023-10-10T08:25:27.661Z,66.40
2023-10-10T08:26:27.796Z,68.20
2023-10-10T08:27:27.628Z,68.10
2023-10-10T08:28:27.603Z,68.90
2023-10-10T08:29:27.669Z,63.20
2023-10-10T08:30:27.574Z,60.80
2023-10-10T08:31:27.595Z,62.70
2023-10-10T08:32:27.595Z,58.50
2023-10-10T08:33:27.718Z,63.40
2023-10-10T08:34:28.276Z,65.90
2023-10-10T08:35:27.527Z,71.50
2023-10-10T08:36:27.512Z,59.90
2023-10-10T08:37:27.487Z,61.10
2023-10-10T08:38:27.518Z,58.80
2023-10-10T08:39:27.501Z,63.70
2023-10-10T08:40:27.465Z,58.80
2023-10-10T08:41:27.485Z,57.70
2023-10-10T08:42:27.642Z,60.80
2023-10-10T08:43:27.426Z,57.00
2023-10-10T08:44:27.508Z,56.20
2023-10-10T08:45:27.417Z,53.20
2023-10-10T08:46:27.391Z,53.60
2023-10-10T08:47:27.480Z,56.30
2023-10-10T08:48:27.428Z,50.30
2023-10-10T08:49:27.350Z,52.10
2023-10-10T08:50:27.356Z,53.40
2023-10-10T08:51:27.306Z,49.50
2023-10-10T08:52:27.289Z,52.50
2023-10-10T08:53:27.346Z,48.10
2023-10-10T08:54:27.395Z,50.30
2023-10-10T08:55:27.282Z,50.50
2023-10-10T08:56:27.246Z,49.50
2023-10-10T08:57:27.272Z,43.50
2023-10-10T08:58:27.214Z,43.10
2023-10-10T08:59:27.238Z,43.10
2023-10-10T09:00:27.266Z,43.30
2023-10-10T09:01:27.193Z,44.70
2023-10-10T09:02:27.173Z,37.90
2023-10-10T09:03:27.222Z,39.20
2023-10-10T09:04:27.182Z,40.00
2023-10-10T09:05:27.147Z,42.60
2023-10-10T09:06:27.103Z,37.10
2023-10-10T09:07:27.112Z,38.20
2023-10-10T09:08:27.134Z,38.00
2023-10-10T09:09:27.094Z,36.20
2023-10-10T09:10:27.047Z,44.40
2023-10-10T09:11:27.087Z,38.70
2023-10-10T09:12:27.036Z,35.00
2023-10-10T09:13:27.022Z,35.20
2023-10-10T09:14:27.029Z,38.00
2023-10-10T09:15:27.014Z,32.90
2023-10-10T09:16:27.010Z,31.70
2023-10-10T09:17:27.027Z,35.30
2023-10-10T09:18:27.545Z,29.70
2023-10-10T09:19:26.938Z,32.60
2023-10-10T09:20:34.013Z,34.40
2023-10-10T09:21:26.922Z,30.60
2023-10-10T09:22:26.899Z,30.30
2023-10-10T09:23:26.986Z,27.00
2023-10-10T09:24:26.874Z,29.00
2023-10-10T09:25:26.864Z,27.40
2023-10-10T09:26:26.857Z,29.90
2023-10-10T09:27:26.849Z,27.40
2023-10-10T09:28:26.809Z,26.50
2023-10-10T09:29:26.812Z,28.60
2023-10-10T09:30:26.835Z,22.40
2023-10-10T09:31:26.831Z,25.70
2023-10-10T09:32:26.816Z,23.50
2023-10-10T09:33:26.798Z,24.60
2023-10-10T09:34:26.734Z,24.00
2023-10-10T09:35:26.761Z,21.80
2023-10-10T09:36:26.720Z,23.00
2023-10-10T09:37:26.698Z,23.90
2023-10-10T09:38:26.776Z,21.40
2023-10-10T09:39:26.742Z,19.70
2023-10-10T09:40:26.668Z,23.00
2023-10-10T09:41:26.724Z,22.80
2023-10-10T09:42:26.635Z,21.70
2023-10-10T09:43:26.636Z,21.80
2023-10-10T09:44:26.655Z,20.10
2023-10-10T09:45:26.619Z,23.90
2023-10-10T09:46:26.612Z,20.70
2023-10-10T09:47:26.637Z,20.40
2023-10-10T09:48:26.554Z,24.10
2023-10-10T09:49:26.540Z,20.70
2023-10-10T09:50:26.579Z,20.20
2023-10-10T09:51:26.532Z,19.40
2023-10-10T09:52:26.498Z,16.10
2023-10-10T09:53:26.575Z,18.80
2023-10-10T09:54:26.567Z,19.70
2023-10-10T09:55:26.490Z,16.90
2023-10-10T09:56:26.496Z,17.10
2023-10-10T09:57:26.437Z,16.20
2023-10-10T09:58:26.444Z,17.10
2023-10-10T09:59:26.486Z,18.60
2023-10-10T10:00:27.585Z,16.40
2023-10-10T10:01:26.494Z,15.70
2023-10-10T10:02:26.401Z,16.70
2023-10-10T10:03:26.412Z,15.90
2023-10-10T10:04:26.515Z,18.70
2023-10-10T10:05:26.331Z,16.00
2023-10-10T10:06:26.307Z,14.60
2023-10-10T10:07:26.299Z,15.40
2023-10-10T10:08:26.306Z,20.00
2023-10-10T10:09:26.284Z,14.40
2023-10-10T10:10:26.261Z,15.00
2023-10-10T10:11:26.280Z,14.90
2023-10-10T10:12:26.240Z,16.00
2023-10-10T10:13:26.231Z,14.00
2023-10-10T10:14:26.482Z,16.80
2023-10-10T10:15:26.200Z,14.00
2023-10-10T10:16:26.259Z,13.90
2023-10-10T10:17:26.236Z,13.50
2023-10-10T10:18:26.219Z,16.70
2023-10-10T10:19:26.145Z,18.00
2023-10-10T10:20:26.155Z,13.80
2023-10-10T10:21:26.115Z,12.70
2023-10-10T10:22:26.098Z,12.00
2023-10-10T10:23:26.150Z,12.40
2023-10-10T10:24:26.094Z,10.30
2023-10-10T10:25:26.068Z,13.70
2023-10-10T10:26:26.088Z,13.70
2023-10-10T10:27:26.161Z,15.50
2023-10-10T10:28:26.037Z,13.20
2023-10-10T10:29:26.041Z,14.80
2023-10-10T10:30:25.997Z,12.10
2023-10-10T10:31:26.026Z,16.10
2023-10-10T10:32:26.233Z,11.50
2023-10-10T10:33:25.995Z,13.20
2023-10-10T10:34:25.949Z,12.60
2023-10-10T10:35:26.074Z,9.90
2023-10-10T10:36:25.941Z,11.70
2023-10-10T10:37:25.931Z,11.40
2023-10-10T10:38:26.192Z,14.10
2023-10-10T10:39:25.885Z,11.80
2023-10-10T10:40:25.866Z,16.40
2023-10-10T10:41:25.929Z,10.10
2023-10-10T10:42:25.850Z,11.50
2023-10-10T10:43:25.865Z,10.50
2023-10-10T10:44:25.836Z,9.80
2023-10-10T10:45:25.835Z,12.60
2023-10-10T10:46:25.813Z,12.20
2023-10-10T10:47:25.829Z,10.70
2023-10-10T10:48:25.834Z,7.70
2023-10-10T10:49:25.752Z,8.40
2023-10-10T10:50:25.792Z,8.80
2023-10-10T10:51:25.769Z,11.30
2023-10-10T10:52:25.717Z,9.40
2023-10-10T10:53:25.709Z,11.90
2023-10-10T10:54:25.695Z,11.00
2023-10-10T10:55:25.702Z,12.60
2023-10-10T10:56:25.690Z,8.50
2023-10-10T10:57:32.682Z,11.70
2023-10-10T10:58:26.631Z,8.10
2023-10-10T10:59:25.650Z,10.50
2023-10-10T11:00:25.729Z,9.60
2023-10-10T11:01:25.659Z,8.90
2023-10-10T11:02:25.713Z,8.70
2023-10-10T11:03:25.675Z,10.10
2023-10-10T11:04:25.652Z,10.80
2023-10-10T11:05:25.648Z,8.40
2023-10-10T11:06:25.583Z,9.00
2023-10-10T11:07:25.531Z,12.00
2023-10-10T11:08:25.562Z,8.40
2023-10-10T11:09:25.493Z,9.70
2023-10-10T11:10:25.501Z,9.20
2023-10-10T11:11:25.496Z,10.80
2023-10-10T11:12:25.451Z,9.10
2023-10-10T11:13:25.444Z,7.10
2023-10-10T11:14:25.446Z,9.30
2023-10-10T11:15:25.449Z,11.50
2023-10-10T11:16:25.466Z,8.00
2023-10-10T11:17:25.451Z,7.90
2023-10-10T11:18:25.641Z,17.50
2023-10-10T11:19:25.628Z,12.00
2023-10-10T11:20:25.390Z,9.20
2023-10-10T11:21:25.338Z,10.10
2023-10-10T11:22:25.329Z,10.40
2023-10-10T11:23:25.344Z,11.20
2023-10-10T11:24:25.321Z,9.60
2023-10-10T11:25:25.292Z,8.60
2023-10-10T11:26:25.300Z,9.30
2023-10-10T11:27:25.270Z,11.10
2023-10-10T11:28:25.263Z,10.30
2023-10-10T11:29:25.271Z,11.30
2023-10-10T11:30:25.545Z,8.20
2023-10-10T11:31:25.372Z,11.90
2023-10-10T11:32:25.475Z,12.30
2023-10-10T11:33:25.237Z,8.90
2023-10-10T11:34:25.176Z,10.00
2023-10-10T11:35:25.237Z,8.80
2023-10-10T11:36:25.153Z,11.00
2023-10-10T11:37:25.591Z,9.40
2023-10-10T11:38:25.389Z,9.70
2023-10-10T11:39:25.118Z,10.10
2023-10-10T11:40:25.093Z,11.20
2023-10-10T11:41:25.141Z,12.50
2023-10-10T11:42:25.090Z,8.60
2023-10-10T11:43:25.072Z,8.80
2023-10-10T11:44:25.101Z,7.50
2023-10-10T11:45:25.090Z,9.90
2023-10-10T11:46:25.064Z,7.90
2023-10-10T11:47:25.132Z,10.90
2023-10-10T11:48:25.111Z,8.10
2023-10-10T11:49:24.985Z,7.20
2023-10-10T11:50:25.044Z,8.20
2023-10-10T11:51:24.973Z,10.50
2023-10-10T11:52:24.956Z,9.10
2023-10-10T11:53:25.631Z,7.90
2023-10-10T11:54:24.925Z,8.50
2023-10-10T11:55:24.913Z,10.60
2023-10-10T11:56:24.913Z,10.70
2023-10-10T11:57:24.898Z,10.20
2023-10-10T11:58:24.883Z,8.70
2023-10-10T11:59:24.900Z,8.20
2023-10-10T12:00:27.660Z,8.70
2023-10-10T12:01:25.984Z,9.30
2023-10-10T12:02:24.847Z,12.30
2023-10-10T12:03:25.036Z,9.50
2023-10-10T12:04:24.827Z,8.90
2023-10-10T12:05:24.849Z,9.60
2023-10-10T12:06:24.780Z,8.10
2023-10-10T12:07:24.764Z,9.60
2023-10-10T12:08:24.924Z,9.90
2023-10-10T12:09:24.746Z,9.80
2023-10-10T12:10:24.736Z,10.30
2023-10-10T12:11:24.780Z,8.90
2023-10-10T12:12:24.704Z,9.10
2023-10-10T12:13:24.695Z,11.50
2023-10-10T12:14:24.722Z,9.60
2023-10-10T12:15:24.686Z,7.00
2023-10-10T12:16:25.698Z,10.60
2023-10-10T12:17:24.718Z,6.70
2023-10-10T12:18:24.738Z,9.50
2023-10-10T12:19:24.626Z,9.10
2023-10-10T12:20:24.646Z,11.00
2023-10-10T12:21:25.075Z,11.10
2023-10-10T12:22:24.581Z,9.00
2023-10-10T12:23:24.594Z,8.60
2023-10-10T12:24:24.575Z,11.80
2023-10-10T12:25:24.569Z,10.10
2023-10-10T12:26:24.569Z,9.80
2023-10-10T12:27:24.529Z,9.30
2023-10-10T12:28:24.509Z,8.10
2023-10-10T12:29:25.995Z,13.20
2023-10-10T12:30:24.488Z,12.70
2023-10-10T12:31:24.616Z,11.00
2023-10-10T12:32:25.463Z,8.90
2023-10-10T12:33:24.536Z,9.10
2023-10-10T12:34:24.451Z,8.70
2023-10-10T12:35:24.458Z,10.10
2023-10-10T12:36:24.427Z,8.20
2023-10-10T12:37:24.600Z,8.50
2023-10-10T12:38:24.412Z,7.50
2023-10-10T12:39:24.390Z,10.10
2023-10-10T12:40:24.390Z,9.70
2023-10-10T12:41:24.430Z,7.40
2023-10-10T12:42:24.336Z,8.10
2023-10-10T12:43:24.344Z,10.80
2023-10-10T12:44:24.363Z,8.60
2023-10-10T12:45:24.300Z,9.90
2023-10-10T12:46:24.332Z,10.60
2023-10-10T12:47:24.294Z,8.30
2023-10-10T12:48:24.380Z,9.00
2023-10-10T12:49:24.258Z,9.50
2023-10-10T12:50:24.252Z,9.00
2023-10-10T12:51:24.403Z,9.90
2023-10-10T12:52:24.226Z,10.30
2023-10-10T12:53:24.397Z,9.20
2023-10-10T12:54:24.186Z,9.90
2023-10-10T12:55:24.184Z,10.30
2023-10-10T12:56:24.177Z,9.30
2023-10-10T12:57:24.172Z,11.50
2023-10-10T12:58:24.157Z,8.00
2023-10-10T12:59:27.794Z,8.90
2023-10-10T13:00:24.123Z,9.20
2023-10-10T13:01:24.178Z,12.10
2023-10-10T13:02:24.118Z,10.00
2023-10-10T13:03:24.219Z,9.60
2023-10-10T13:04:24.074Z,9.70
2023-10-10T13:05:24.080Z,10.10
2023-10-10T13:06:24.469Z,7.20
2023-10-10T13:07:24.037Z,10.00
2023-10-10T13:08:24.040Z,11.40
2023-10-10T13:09:24.003Z,11.00
2023-10-10T13:10:23.989Z,13.30
2023-10-10T13:11:24.013Z,9.30
2023-10-10T13:12:23.970Z,10.10
2023-10-10T13:13:23.951Z,11.00
2023-10-10T13:14:23.939Z,8.90
2023-10-10T13:15:23.969Z,8.80
2023-10-10T13:16:23.988Z,10.00
2023-10-10T13:17:23.926Z,10.70
2023-10-10T13:18:23.986Z,10.00
2023-10-10T13:19:23.881Z,12.50
2023-10-10T13:20:23.931Z,9.00
2023-10-10T13:21:23.858Z,9.50
2023-10-10T13:22:23.831Z,11.40
2023-10-10T13:23:23.924Z,11.50
2023-10-10T13:24:23.806Z,12.80
2023-10-10T13:25:23.824Z,11.20
2023-10-10T13:26:23.862Z,10.20
2023-10-10T13:27:23.766Z,14.30
2023-10-10T13:28:23.752Z,13.50
2023-10-10T13:29:23.772Z,10.10
2023-10-10T13:30:23.736Z,11.80
2023-10-10T13:31:23.749Z,13.70
2023-10-10T13:32:23.714Z,13.00
2023-10-10T13:33:23.801Z,13.90
2023-10-10T13:34:23.737Z,11.80
2023-10-10T13:35:23.686Z,10.10
2023-10-10T13:36:23.648Z,12.00
2023-10-10T13:37:23.643Z,11.80
2023-10-10T13:38:23.635Z,12.30
2023-10-10T13:39:23.624Z,11.20
2023-10-10T13:40:23.610Z,12.30
2023-10-10T13:41:23.628Z,12.70
2023-10-10T13:42:23.577Z,15.30
2023-10-10T13:43:23.581Z,13.80
2023-10-10T13:44:23.585Z,10.20
2023-10-10T13:45:24.007Z,11.70
2023-10-10T13:46:23.575Z,12.40
2023-10-10T13:47:23.533Z,12.00
2023-10-10T13:48:23.638Z,11.50
2023-10-10T13:49:23.515Z,15.30
2023-10-10T13:50:23.489Z,11.50
2023-10-10T13:51:23.462Z,10.80
2023-10-10T13:52:23.443Z,12.00
2023-10-10T13:53:23.465Z,7.90
2023-10-10T13:54:23.417Z,19.30
2023-10-10T13:55:23.418Z,11.80
2023-10-10T13:56:23.425Z,13.90
2023-10-10T13:57:23.387Z,9.40
2023-10-10T13:58:23.381Z,10.50
2023-10-10T13:59:23.397Z,11.30
2023-10-10T14:00:23.342Z,14.20
2023-10-10T14:01:23.398Z,10.70
2023-10-10T14:02:23.384Z,8.00
2023-10-10T14:03:23.466Z,11.50
2023-10-10T14:04:23.557Z,13.80
2023-10-10T14:05:23.298Z,11.40
2023-10-10T14:06:23.262Z,13.20
2023-10-10T14:07:23.269Z,10.40
2023-10-10T14:08:23.286Z,14.50
2023-10-10T14:09:23.250Z,11.80
2023-10-10T14:10:23.218Z,12.70
2023-10-10T14:11:23.368Z,12.80
2023-10-10T14:12:23.209Z,9.30
2023-10-10T14:13:23.181Z,12.70
2023-10-10T14:14:23.206Z,14.60
2023-10-10T14:15:23.175Z,11.10
2023-10-10T14:16:23.236Z,9.30
2023-10-10T14:17:23.166Z,11.70
2023-10-10T14:18:23.156Z,13.80
2023-10-10T14:19:23.113Z,10.40
2023-10-10T14:20:23.152Z,11.30
2023-10-10T14:21:23.098Z,14.30
2023-10-10T14:22:23.077Z,14.10
2023-10-10T14:23:23.078Z,11.90
2023-10-10T14:24:23.042Z,13.60
2023-10-10T14:25:23.024Z,10.70
2023-10-10T14:26:23.041Z,13.00
2023-10-10T14:27:22.997Z,10.80
2023-10-10T14:28:22.980Z,13.00
2023-10-10T14:29:22.998Z,13.50
2023-10-10T14:30:22.962Z,9.10
2023-10-10T14:31:23.224Z,13.90
2023-10-10T14:32:37.546Z,10.40
2023-10-10T14:33:23.994Z,10.20
2023-10-10T14:34:22.900Z,10.30
2023-10-10T14:35:22.929Z,13.80
2023-10-10T14:36:22.884Z,15.10
2023-10-10T14:38:22.876Z,14.30
2023-10-10T14:39:22.840Z,13.20
2023-10-10T14:40:22.836Z,14.30
2023-10-10T14:41:22.869Z,12.00
2023-10-10T14:42:22.797Z,11.10
2023-10-10T14:43:22.799Z,15.30
2023-10-10T14:44:22.828Z,13.60
2023-10-10T14:45:22.776Z,13.30
2023-10-10T14:46:23.152Z,13.70
2023-10-10T14:47:22.784Z,12.40
2023-10-10T14:48:22.751Z,12.40
2023-10-10T14:49:22.742Z,10.40
2023-10-10T14:50:22.736Z,11.90
2023-10-10T14:51:22.685Z,14.70
2023-10-10T14:52:22.680Z,12.20
2023-10-10T14:53:22.677Z,12.50
2023-10-10T14:54:22.667Z,13.70
2023-10-10T14:55:22.641Z,11.40
2023-10-10T14:56:23.379Z,11.50
2023-10-10T14:57:22.613Z,11.80
2023-10-10T14:58:22.594Z,12.00
2023-10-10T14:59:22.655Z,9.60
2023-10-10T15:00:22.588Z,9.10
2023-10-10T15:01:22.562Z,13.50
2023-10-10T15:02:22.580Z,12.30
2023-10-10T15:03:22.612Z,12.70
2023-10-10T15:04:22.605Z,12.90
2023-10-10T15:05:22.527Z,12.80
2023-10-10T15:06:22.485Z,11.20
2023-10-10T15:07:22.523Z,14.00
2023-10-10T15:08:22.473Z,10.10
2023-10-10T15:09:22.450Z,11.00
2023-10-10T15:10:22.476Z,12.40
2023-10-10T15:11:22.454Z,13.40
2023-10-10T15:12:22.419Z,12.80
2023-10-10T15:13:22.411Z,15.30
2023-10-10T15:14:22.426Z,11.00
2023-10-10T15:15:22.372Z,10.40
2023-10-10T15:16:22.398Z,10.60
2023-10-10T15:17:22.383Z,10.90
2023-10-10T15:18:22.420Z,9.40
2023-10-10T15:19:22.318Z,9.70
2023-10-10T15:20:23.698Z,12.40
2023-10-10T15:21:29.335Z,13.30
2023-10-10T15:22:22.289Z,14.20
2023-10-10T15:23:22.316Z,10.90
2023-10-10T15:24:22.243Z,11.10
2023-10-10T15:25:22.230Z,9.20
2023-10-10T15:26:22.254Z,8.50
2023-10-10T15:27:22.232Z,12.30
2023-10-10T15:28:22.190Z,9.70
2023-10-10T15:29:22.437Z,12.90
2023-10-10T15:30:22.245Z,8.90
2023-10-10T15:31:22.168Z,12.60
2023-10-10T15:32:22.162Z,14.10
2023-10-10T15:33:22.178Z,13.10
2023-10-10T15:34:22.135Z,11.90
2023-10-10T15:35:22.120Z,12.00
2023-10-10T15:36:22.091Z,15.00
2023-10-10T15:37:22.076Z,11.40
2023-10-10T15:38:22.118Z,15.70
2023-10-10T15:39:22.048Z,10.70
2023-10-10T15:40:22.787Z,11.60
2023-10-10T15:41:22.074Z,10.60
2023-10-10T15:42:22.005Z,10.90
2023-10-10T15:43:32.258Z,10.30
2023-10-10T15:44:23.022Z,9.20
2023-10-10T15:45:22.040Z,8.40
2023-10-10T15:46:21.967Z,14.70
2023-10-10T15:47:21.984Z,11.70
2023-10-10T15:48:22.008Z,12.70
2023-10-10T15:49:35.755Z,11.50
2023-10-10T15:50:23.377Z,11.90
2023-10-10T15:51:21.905Z,12.20
2023-10-10T15:52:21.883Z,8.90
2023-10-10T15:53:21.902Z,10.10
2023-10-10T15:54:21.865Z,14.20
2023-10-10T15:55:21.850Z,9.30
2023-10-10T15:56:21.864Z,9.30
2023-10-10T15:57:21.816Z,8.40
2023-10-10T15:58:21.797Z,10.30
2023-10-10T15:59:21.830Z,11.80
2023-10-10T16:00:21.770Z,11.60
2023-10-10T16:01:21.779Z,9.40
2023-10-10T16:02:21.741Z,9.70
2023-10-10T16:03:21.815Z,12.10
2023-10-10T16:04:21.752Z,9.00
2023-10-10T16:05:21.745Z,10.50
2023-10-10T16:06:21.693Z,10.60
2023-10-10T16:07:21.691Z,10.40
2023-10-10T16:08:21.701Z,11.70
2023-10-10T16:09:21.820Z,10.00
2023-10-10T16:10:21.647Z,11.00
2023-10-10T16:11:21.685Z,10.50
2023-10-10T16:12:21.643Z,7.80
2023-10-10T16:13:21.622Z,9.80
2023-10-10T16:14:21.652Z,13.30
2023-10-10T16:15:30.513Z,8.60
2023-10-10T16:16:22.612Z,11.30
2023-10-10T16:17:21.570Z,11.80
2023-10-10T16:18:21.690Z,10.80
2023-10-10T16:19:21.539Z,11.10
2023-10-10T16:20:21.557Z,10.00
2023-10-10T16:21:21.511Z,11.00
2023-10-10T16:22:21.498Z,11.60
2023-10-10T16:23:21.501Z,10.30
2023-10-10T16:24:21.476Z,9.80
2023-10-10T16:25:21.449Z,10.40
2023-10-10T16:26:21.444Z,9.20
2023-10-10T16:27:21.437Z,8.40
2023-10-10T16:28:23.218Z,9.90
2023-10-10T16:29:21.422Z,12.00
2023-10-10T16:30:21.381Z,9.10
2023-10-10T16:31:21.426Z,11.40
2023-10-10T16:32:21.430Z,10.80
2023-10-10T16:33:21.420Z,11.20
2023-10-10T16:34:21.329Z,9.30
2023-10-10T16:35:21.373Z,9.20
2023-10-10T16:36:21.322Z,9.80
2023-10-10T16:37:21.344Z,10.70
2023-10-10T16:38:21.287Z,9.00
2023-10-10T16:39:21.313Z,11.90
2023-10-10T16:40:21.278Z,12.40
2023-10-10T16:41:21.247Z,11.30
2023-10-10T16:42:21.255Z,14.00
2023-10-10T16:43:21.209Z,14.00
2023-10-10T16:44:21.233Z,12.80
2023-10-10T16:45:21.239Z,9.60
2023-10-10T16:46:21.241Z,10.50
2023-10-10T16:47:21.175Z,13.80
2023-10-10T16:48:21.252Z,10.70
2023-10-10T16:49:21.148Z,11.60
2023-10-10T16:50:21.116Z,13.60
2023-10-10T16:51:21.114Z,11.90
2023-10-10T16:52:21.312Z,10.80
2023-10-10T16:53:21.093Z,10.40
2023-10-10T16:54:21.067Z,11.30
2023-10-10T16:55:21.051Z,13.30
2023-10-10T16:56:21.054Z,12.60
2023-10-10T16:57:21.017Z,9.20
2023-10-10T16:59:21.028Z,15.10
2023-10-10T17:00:21.004Z,12.40
2023-10-10T17:01:21.015Z,16.10
2023-10-10T17:02:20.988Z,14.30
2023-10-10T17:03:21.140Z,11.20
2023-10-10T17:04:21.084Z,11.50
2023-10-10T17:05:20.927Z,10.70
2023-10-10T17:06:20.908Z,11.80